sensor_id;sensor_type;location;lat;lon;timestamp;temperature;humidity
26081;DHT22;13991;51.174;4.438;2024-01-27T00:01:22;6.00;99.90
26081;DHT22;13991;51.174;4.438;2024-01-27T00:03:48;6.00;99.90
26081;DHT22;13991;51.174;4.438;2024-01-27T00:06:13;6.00;99.90
26081;DHT22;13991;51.174;4.438;2024-01-27T00:08:39;6.10;99.90
26081;DHT22;13991;51.174;4.438;2024-01-27T00:11:05;6.10;99.90
26081;DHT22;13991;51.174;4.438;2024-01-27T00:13:31;6.10;99.90
26081;DHT22;13991;51.174;4.438;2024-01-27T00:15:56;6.00;99.90
26081;DHT22;13991;51.174;4.438;2024-01-27T00:18:22;5.80;99.90
26081;DHT22;13991;51.174;4.438;2024-01-27T00:20:48;5.80;99.90
26081;DHT22;13991;51.174;4.438;2024-01-27T00:23:14;5.80;99.90
26081;DHT22;13991;51.174;4.438;2024-01-27T00:25:40;5.80;99.90
26081;DHT22;13991;51.174;4.438;2024-01-27T00:28:05;5.80;99.90
26081;DHT22;13991;51.174;4.438;2024-01-27T00:30:31;5.70;99.90
26081;DHT22;13991;51.174;4.438;2024-01-27T00:32:57;5.70;99.90
26081;DHT22;13991;51.174;4.438;2024-01-27T00:35:23;5.80;99.90
26081;DHT22;13991;51.174;4.438;2024-01-27T00:37:49;5.80;99.90
26081;DHT22;13991;51.174;4.438;2024-01-27T00:40:16;5.80;99.90
26081;DHT22;13991;51.174;4.438;2024-01-27T00:42:41;5.70;99.90
26081;DHT22;13991;51.174;4.438;2024-01-27T00:45:07;5.80;99.90
26081;DHT22;13991;51.174;4.438;2024-01-27T00:47:33;5.80;99.90
26081;DHT22;13991;51.174;4.438;2024-01-27T00:49:58;5.80;99.90
26081;DHT22;13991;51.174;4.438;2024-01-27T00:52:24;5.80;99.90
26081;DHT22;13991;51.174;4.438;2024-01-27T00:54:50;5.80;99.90
26081;DHT22;13991;51.174;4.438;2024-01-27T00:57:17;5.80;99.90
26081;DHT22;13991;51.174;4.438;2024-01-27T00:59:42;5.70;99.90
26081;DHT22;13991;51.174;4.438;2024-01-27T01:02:08;5.70;99.90
26081;DHT22;13991;51.174;4.438;2024-01-27T01:04:33;5.60;99.90
26081;DHT22;13991;51.174;4.438;2024-01-27T01:06:59;5.70;99.90
26081;DHT22;13991;51.174;4.438;2024-01-27T01:09:25;5.70;99.90
26081;DHT22;13991;51.174;4.438;2024-01-27T01:11:51;5.70;99.90
26081;DHT22;13991;51.174;4.438;2024-01-27T01:14:17;5.70;99.90
26081;DHT22;13991;51.174;4.438;2024-01-27T01:16:42;5.70;99.90
26081;DHT22;13991;51.174;4.438;2024-01-27T01:19:08;5.80;99.90
26081;DHT22;13991;51.174;4.438;2024-01-27T01:21:34;5.70;99.90
26081;DHT22;13991;51.174;4.438;2024-01-27T01:23:59;5.70;99.90
26081;DHT22;13991;51.174;4.438;2024-01-27T01:26:25;5.60;99.90
26081;DHT22;13991;51.174;4.438;2024-01-27T01:28:51;5.60;99.90
26081;DHT22;13991;51.174;4.438;2024-01-27T01:31:17;5.60;99.90
26081;DHT22;13991;51.174;4.438;2024-01-27T01:33:43;5.60;99.90
26081;DHT22;13991;51.174;4.438;2024-01-27T01:36:09;5.60;99.90
26081;DHT22;13991;51.174;4.438;2024-01-27T01:38:35;5.70;99.90
26081;DHT22;13991;51.174;4.438;2024-01-27T01:41:00;5.70;99.90
26081;DHT22;13991;51.174;4.438;2024-01-27T01:43:26;5.70;99.90
26081;DHT22;13991;51.174;4.438;2024-01-27T01:45:52;5.70;99.90
26081;DHT22;13991;51.174;4.438;2024-01-27T01:48:21;5.60;99.90
26081;DHT22;13991;51.174;4.438;2024-01-27T01:50:47;5.50;99.90
26081;DHT22;13991;51.174;4.438;2024-01-27T01:53:13;5.60;99.90
26081;DHT22;13991;51.174;4.438;2024-01-27T01:55:39;5.50;99.90
26081;DHT22;13991;51.174;4.438;2024-01-27T01:58:06;5.60;99.90
26081;DHT22;13991;51.174;4.438;2024-01-27T02:00:32;5.60;99.90
26081;DHT22;13991;51.174;4.438;2024-01-27T02:02:58;5.60;99.90
26081;DHT22;13991;51.174;4.438;2024-01-27T02:05:24;5.60;99.90
26081;DHT22;13991;51.174;4.438;2024-01-27T02:07:50;5.60;99.90
26081;DHT22;13991;51.174;4.438;2024-01-27T02:10:17;5.60;99.90
26081;DHT22;13991;51.174;4.438;2024-01-27T02:12:44;5.50;99.90
26081;DHT22;13991;51.174;4.438;2024-01-27T02:15:10;5.50;99.90
26081;DHT22;13991;51.174;4.438;2024-01-27T02:17:37;5.50;99.90
26081;DHT22;13991;51.174;4.438;2024-01-27T02:20:04;5.50;99.90
26081;DHT22;13991;51.174;4.438;2024-01-27T02:22:29;5.50;99.90
26081;DHT22;13991;51.174;4.438;2024-01-27T02:24:55;5.40;99.90
26081;DHT22;13991;51.174;4.438;2024-01-27T02:27:20;5.40;99.90
26081;DHT22;13991;51.174;4.438;2024-01-27T02:29:46;5.50;99.90
26081;DHT22;13991;51.174;4.438;2024-01-27T02:32:12;5.40;99.90
26081;DHT22;13991;51.174;4.438;2024-01-27T02:34:37;5.40;99.90
26081;DHT22;13991;51.174;4.438;2024-01-27T02:37:03;5.40;99.90
26081;DHT22;13991;51.174;4.438;2024-01-27T02:39:29;5.40;99.90
26081;DHT22;13991;51.174;4.438;2024-01-27T02:41:54;5.40;99.90
26081;DHT22;13991;51.174;4.438;2024-01-27T02:44:20;5.30;99.90
26081;DHT22;13991;51.174;4.438;2024-01-27T02:46:46;5.40;99.90
26081;DHT22;13991;51.174;4.438;2024-01-27T02:49:11;5.60;99.90
26081;DHT22;13991;51.174;4.438;2024-01-27T02:51:37;5.50;99.90
26081;DHT22;13991;51.174;4.438;2024-01-27T02:54:03;5.40;99.90
26081;DHT22;13991;51.174;4.438;2024-01-27T02:56:28;5.40;99.90
26081;DHT22;13991;51.174;4.438;2024-01-27T02:58:54;5.40;99.90
26081;DHT22;13991;51.174;4.438;2024-01-27T03:01:20;5.40;99.90
26081;DHT22;13991;51.174;4.438;2024-01-27T03:03:46;5.40;99.90
26081;DHT22;13991;51.174;4.438;2024-01-27T03:06:11;5.40;99.90
26081;DHT22;13991;51.174;4.438;2024-01-27T03:08:37;5.30;99.90
26081;DHT22;13991;51.174;4.438;2024-01-27T03:11:03;5.40;99.90
26081;DHT22;13991;51.174;4.438;2024-01-27T03:13:28;5.30;99.90
26081;DHT22;13991;51.174;4.438;2024-01-27T03:15:54;5.30;99.90
26081;DHT22;13991;51.174;4.438;2024-01-27T03:18:21;5.20;99.90
26081;DHT22;13991;51.174;4.438;2024-01-27T03:20:47;5.30;99.90
26081;DHT22;13991;51.174;4.438;2024-01-27T03:23:13;5.30;99.90
26081;DHT22;13991;51.174;4.438;2024-01-27T03:25:38;5.30;99.90
26081;DHT22;13991;51.174;4.438;2024-01-27T03:28:07;5.20;99.90
26081;DHT22;13991;51.174;4.438;2024-01-27T03:30:39;5.20;99.90
26081;DHT22;13991;51.174;4.438;2024-01-27T03:33:05;5.20;99.90
26081;DHT22;13991;51.174;4.438;2024-01-27T03:35:32;5.00;99.90
26081;DHT22;13991;51.174;4.438;2024-01-27T03:37:57;5.10;99.90
26081;DHT22;13991;51.174;4.438;2024-01-27T03:40:23;5.10;99.90
26081;DHT22;13991;51.174;4.438;2024-01-27T03:42:49;5.10;99.90
26081;DHT22;13991;51.174;4.438;2024-01-27T03:45:14;5.20;99.90
26081;DHT22;13991;51.174;4.438;2024-01-27T03:47:40;5.10;99.90
26081;DHT22;13991;51.174;4.438;2024-01-27T03:50:06;5.10;99.90
26081;DHT22;13991;51.174;4.438;2024-01-27T03:52:32;5.10;99.90
26081;DHT22;13991;51.174;4.438;2024-01-27T03:54:58;5.10;99.90
26081;DHT22;13991;51.174;4.438;2024-01-27T03:57:24;5.10;99.90
26081;DHT22;13991;51.174;4.438;2024-01-27T03:59:50;5.00;99.90
26081;DHT22;13991;51.174;4.438;2024-01-27T04:02:15;5.10;99.90
26081;DHT22;13991;51.174;4.438;2024-01-27T04:04:41;4.90;99.90
26081;DHT22;13991;51.174;4.438;2024-01-27T04:07:07;5.00;99.90
26081;DHT22;13991;51.174;4.438;2024-01-27T04:09:32;4.90;99.90
26081;DHT22;13991;51.174;4.438;2024-01-27T04:11:58;4.90;99.90
26081;DHT22;13991;51.174;4.438;2024-01-27T04:14:24;5.00;99.90
26081;DHT22;13991;51.174;4.438;2024-01-27T04:16:49;4.90;99.90
26081;DHT22;13991;51.174;4.438;2024-01-27T04:19:15;4.90;99.90
26081;DHT22;13991;51.174;4.438;2024-01-27T04:21:40;4.90;99.90
26081;DHT22;13991;51.174;4.438;2024-01-27T04:24:08;4.90;99.90
26081;DHT22;13991;51.174;4.438;2024-01-27T04:26:33;4.90;99.90
26081;DHT22;13991;51.174;4.438;2024-01-27T04:28:59;4.90;99.90
26081;DHT22;13991;51.174;4.438;2024-01-27T04:31:25;4.90;99.90
26081;DHT22;13991;51.174;4.438;2024-01-27T04:33:51;4.90;99.90
26081;DHT22;13991;51.174;4.438;2024-01-27T04:36:25;4.80;99.90
26081;DHT22;13991;51.174;4.438;2024-01-27T04:38:51;4.60;99.90
26081;DHT22;13991;51.174;4.438;2024-01-27T04:41:17;4.70;99.90
26081;DHT22;13991;51.174;4.438;2024-01-27T04:43:43;4.80;99.90
26081;DHT22;13991;51.174;4.438;2024-01-27T04:46:08;4.80;99.90
26081;DHT22;13991;51.174;4.438;2024-01-27T04:48:34;4.80;99.90
26081;DHT22;13991;51.174;4.438;2024-01-27T04:51:00;4.80;99.90
26081;DHT22;13991;51.174;4.438;2024-01-27T04:53:26;4.70;99.90
26081;DHT22;13991;51.174;4.438;2024-01-27T04:55:51;4.80;99.90
26081;DHT22;13991;51.174;4.438;2024-01-27T04:58:17;4.80;99.90
26081;DHT22;13991;51.174;4.438;2024-01-27T05:00:42;4.80;99.90
26081;DHT22;13991;51.174;4.438;2024-01-27T05:03:08;4.80;99.90
26081;DHT22;13991;51.174;4.438;2024-01-27T05:05:41;4.70;99.90
26081;DHT22;13991;51.174;4.438;2024-01-27T05:08:06;4.70;99.90
26081;DHT22;13991;51.174;4.438;2024-01-27T05:10:32;4.60;99.90
26081;DHT22;13991;51.174;4.438;2024-01-27T05:12:58;4.70;99.90
26081;DHT22;13991;51.174;4.438;2024-01-27T05:15:25;4.60;99.90
26081;DHT22;13991;51.174;4.438;2024-01-27T05:17:50;4.60;99.90
26081;DHT22;13991;51.174;4.438;2024-01-27T05:20:17;4.60;99.90
26081;DHT22;13991;51.174;4.438;2024-01-27T05:22:43;4.60;99.90
26081;DHT22;13991;51.174;4.438;2024-01-27T05:25:09;4.60;99.90
26081;DHT22;13991;51.174;4.438;2024-01-27T05:27:39;4.60;99.90
26081;DHT22;13991;51.174;4.438;2024-01-27T05:30:08;4.50;99.90
26081;DHT22;13991;51.174;4.438;2024-01-27T05:32:34;4.50;99.90
26081;DHT22;13991;51.174;4.438;2024-01-27T05:35:00;4.50;99.90
26081;DHT22;13991;51.174;4.438;2024-01-27T05:37:25;4.50;99.90
26081;DHT22;13991;51.174;4.438;2024-01-27T05:39:51;4.60;99.90
26081;DHT22;13991;51.174;4.438;2024-01-27T05:42:17;4.60;99.90
26081;DHT22;13991;51.174;4.438;2024-01-27T05:44:42;4.50;99.90
26081;DHT22;13991;51.174;4.438;2024-01-27T05:47:08;4.50;99.90
26081;DHT22;13991;51.174;4.438;2024-01-27T05:49:36;4.60;99.90
26081;DHT22;13991;51.174;4.438;2024-01-27T05:52:02;4.40;99.90
26081;DHT22;13991;51.174;4.438;2024-01-27T05:54:28;4.40;99.90
26081;DHT22;13991;51.174;4.438;2024-01-27T05:56:53;4.40;99.90
26081;DHT22;13991;51.174;4.438;2024-01-27T05:59:19;4.40;99.90
26081;DHT22;13991;51.174;4.438;2024-01-27T06:01:44;4.50;99.90
26081;DHT22;13991;51.174;4.438;2024-01-27T06:04:13;4.50;99.90
26081;DHT22;13991;51.174;4.438;2024-01-27T06:06:39;4.40;99.90
26081;DHT22;13991;51.174;4.438;2024-01-27T06:09:05;4.40;99.90
26081;DHT22;13991;51.174;4.438;2024-01-27T06:11:30;4.30;99.90
26081;DHT22;13991;51.174;4.438;2024-01-27T06:13:56;4.30;99.90
26081;DHT22;13991;51.174;4.438;2024-01-27T06:16:23;4.40;99.90
26081;DHT22;13991;51.174;4.438;2024-01-27T06:18:49;4.40;99.90
26081;DHT22;13991;51.174;4.438;2024-01-27T06:21:15;4.40;99.90
26081;DHT22;13991;51.174;4.438;2024-01-27T06:23:40;4.40;99.90
26081;DHT22;13991;51.174;4.438;2024-01-27T06:26:09;4.40;99.90
26081;DHT22;13991;51.174;4.438;2024-01-27T06:28:35;4.40;99.90
26081;DHT22;13991;51.174;4.438;2024-01-27T06:31:04;4.30;99.90
26081;DHT22;13991;51.174;4.438;2024-01-27T06:33:30;4.40;99.90
26081;DHT22;13991;51.174;4.438;2024-01-27T06:35:56;4.40;99.90
26081;DHT22;13991;51.174;4.438;2024-01-27T06:38:22;4.30;99.90
26081;DHT22;13991;51.174;4.438;2024-01-27T06:40:48;4.20;99.90
26081;DHT22;13991;51.174;4.438;2024-01-27T06:43:14;4.30;99.90
26081;DHT22;13991;51.174;4.438;2024-01-27T06:45:40;4.30;99.90
26081;DHT22;13991;51.174;4.438;2024-01-27T06:48:06;4.30;99.90
26081;DHT22;13991;51.174;4.438;2024-01-27T06:50:35;4.30;99.90
26081;DHT22;13991;51.174;4.438;2024-01-27T06:53:01;4.40;99.90
26081;DHT22;13991;51.174;4.438;2024-01-27T06:55:27;4.20;99.90
26081;DHT22;13991;51.174;4.438;2024-01-27T06:57:52;4.20;99.90
26081;DHT22;13991;51.174;4.438;2024-01-27T07:00:19;4.20;99.90
26081;DHT22;13991;51.174;4.438;2024-01-27T07:02:45;4.30;99.90
26081;DHT22;13991;51.174;4.438;2024-01-27T07:05:11;4.20;99.90
26081;DHT22;13991;51.174;4.438;2024-01-27T07:07:40;4.20;99.90
26081;DHT22;13991;51.174;4.438;2024-01-27T07:10:07;4.40;99.90
26081;DHT22;13991;51.174;4.438;2024-01-27T07:12:36;4.30;99.90
26081;DHT22;13991;51.174;4.438;2024-01-27T07:15:02;4.20;99.90
26081;DHT22;13991;51.174;4.438;2024-01-27T07:17:27;4.10;99.90
26081;DHT22;13991;51.174;4.438;2024-01-27T07:19:53;4.20;99.90
26081;DHT22;13991;51.174;4.438;2024-01-27T07:22:19;4.10;99.90
26081;DHT22;13991;51.174;4.438;2024-01-27T07:24:44;4.20;99.90
26081;DHT22;13991;51.174;4.438;2024-01-27T07:27:12;4.00;99.90
26081;DHT22;13991;51.174;4.438;2024-01-27T07:29:39;4.10;99.90
26081;DHT22;13991;51.174;4.438;2024-01-27T07:32:05;4.10;99.90
26081;DHT22;13991;51.174;4.438;2024-01-27T07:34:33;4.10;99.90
26081;DHT22;13991;51.174;4.438;2024-01-27T07:36:58;4.10;99.90
26081;DHT22;13991;51.174;4.438;2024-01-27T07:39:24;4.10;99.90
26081;DHT22;13991;51.174;4.438;2024-01-27T07:41:50;4.00;99.90
26081;DHT22;13991;51.174;4.438;2024-01-27T07:44:15;4.10;99.90
26081;DHT22;13991;51.174;4.438;2024-01-27T07:46:42;4.10;99.90
26081;DHT22;13991;51.174;4.438;2024-01-27T07:49:08;4.20;99.90
26081;DHT22;13991;51.174;4.438;2024-01-27T07:51:34;4.20;99.90
26081;DHT22;13991;51.174;4.438;2024-01-27T07:54:00;4.20;99.90
26081;DHT22;13991;51.174;4.438;2024-01-27T07:56:26;4.10;99.90
26081;DHT22;13991;51.174;4.438;2024-01-27T07:58:52;4.10;99.90
26081;DHT22;13991;51.174;4.438;2024-01-27T08:01:19;4.20;99.90
26081;DHT22;13991;51.174;4.438;2024-01-27T08:03:44;4.30;99.90
26081;DHT22;13991;51.174;4.438;2024-01-27T08:06:18;4.30;99.90
26081;DHT22;13991;51.174;4.438;2024-01-27T08:08:48;4.40;99.90
26081;DHT22;13991;51.174;4.438;2024-01-27T08:11:17;4.40;99.90
26081;DHT22;13991;51.174;4.438;2024-01-27T08:13:43;4.40;99.90
26081;DHT22;13991;51.174;4.438;2024-01-27T08:16:09;4.50;99.90
26081;DHT22;13991;51.174;4.438;2024-01-27T08:18:40;4.50;99.90
26081;DHT22;13991;51.174;4.438;2024-01-27T08:21:08;4.50;99.90
26081;DHT22;13991;51.174;4.438;2024-01-27T08:23:34;4.70;99.90
26081;DHT22;13991;51.174;4.438;2024-01-27T08:26:00;4.70;99.90
26081;DHT22;13991;51.174;4.438;2024-01-27T08:28:25;4.90;99.90
26081;DHT22;13991;51.174;4.438;2024-01-27T08:30:51;4.70;99.90
26081;DHT22;13991;51.174;4.438;2024-01-27T08:33:17;4.80;99.90
26081;DHT22;13991;51.174;4.438;2024-01-27T08:35:42;4.80;99.90
26081;DHT22;13991;51.174;4.438;2024-01-27T08:38:09;4.90;99.90
26081;DHT22;13991;51.174;4.438;2024-01-27T08:40:35;4.80;99.90
26081;DHT22;13991;51.174;4.438;2024-01-27T08:43:01;5.00;99.90
26081;DHT22;13991;51.174;4.438;2024-01-27T08:45:27;5.10;99.90
26081;DHT22;13991;51.174;4.438;2024-01-27T08:47:53;5.10;99.90
26081;DHT22;13991;51.174;4.438;2024-01-27T08:50:18;5.20;99.90
26081;DHT22;13991;51.174;4.438;2024-01-27T08:52:44;5.30;99.90
26081;DHT22;13991;51.174;4.438;2024-01-27T08:55:11;5.40;99.90
26081;DHT22;13991;51.174;4.438;2024-01-27T08:57:37;5.50;99.90
26081;DHT22;13991;51.174;4.438;2024-01-27T09:00:03;5.50;99.90
26081;DHT22;13991;51.174;4.438;2024-01-27T09:02:29;5.50;99.90
26081;DHT22;13991;51.174;4.438;2024-01-27T09:04:55;5.50;99.90
26081;DHT22;13991;51.174;4.438;2024-01-27T09:07:21;5.70;99.90
26081;DHT22;13991;51.174;4.438;2024-01-27T09:09:47;5.80;99.90
26081;DHT22;13991;51.174;4.438;2024-01-27T09:12:12;5.80;99.90
26081;DHT22;13991;51.174;4.438;2024-01-27T09:14:38;5.90;99.90
26081;DHT22;13991;51.174;4.438;2024-01-27T09:17:04;6.00;99.90
26081;DHT22;13991;51.174;4.438;2024-01-27T09:19:30;6.00;99.90
26081;DHT22;13991;51.174;4.438;2024-01-27T09:21:55;6.10;99.90
26081;DHT22;13991;51.174;4.438;2024-01-27T09:24:21;6.30;99.90
26081;DHT22;13991;51.174;4.438;2024-01-27T09:26:46;6.40;99.90
26081;DHT22;13991;51.174;4.438;2024-01-27T09:29:12;6.50;99.90
26081;DHT22;13991;51.174;4.438;2024-01-27T09:31:38;6.60;99.90
26081;DHT22;13991;51.174;4.438;2024-01-27T09:34:03;6.60;99.90
26081;DHT22;13991;51.174;4.438;2024-01-27T09:36:29;6.70;99.90
26081;DHT22;13991;51.174;4.438;2024-01-27T09:38:55;6.70;99.90
26081;DHT22;13991;51.174;4.438;2024-01-27T09:41:21;6.80;99.90
26081;DHT22;13991;51.174;4.438;2024-01-27T09:43:47;6.90;99.90
26081;DHT22;13991;51.174;4.438;2024-01-27T09:46:17;7.00;99.90
26081;DHT22;13991;51.174;4.438;2024-01-27T09:48:43;7.00;99.90
26081;DHT22;13991;51.174;4.438;2024-01-27T09:51:10;7.10;99.90
26081;DHT22;13991;51.174;4.438;2024-01-27T09:53:37;7.10;99.90
26081;DHT22;13991;51.174;4.438;2024-01-27T09:56:03;7.20;99.90
26081;DHT22;13991;51.174;4.438;2024-01-27T09:58:32;7.20;99.90
26081;DHT22;13991;51.174;4.438;2024-01-27T10:00:59;7.40;99.90
26081;DHT22;13991;51.174;4.438;2024-01-27T10:03:27;7.50;99.90
26081;DHT22;13991;51.174;4.438;2024-01-27T10:05:54;7.50;99.90
26081;DHT22;13991;51.174;4.438;2024-01-27T10:08:21;7.60;99.90
26081;DHT22;13991;51.174;4.438;2024-01-27T10:10:47;7.70;99.90
26081;DHT22;13991;51.174;4.438;2024-01-27T10:13:15;7.80;99.90
26081;DHT22;13991;51.174;4.438;2024-01-27T10:15:42;7.80;99.90
26081;DHT22;13991;51.174;4.438;2024-01-27T10:18:08;7.90;99.90
26081;DHT22;13991;51.174;4.438;2024-01-27T10:20:39;7.90;99.90
26081;DHT22;13991;51.174;4.438;2024-01-27T10:23:14;7.90;99.90
26081;DHT22;13991;51.174;4.438;2024-01-27T10:25:40;8.10;99.90
26081;DHT22;13991;51.174;4.438;2024-01-27T10:28:07;8.10;99.90
26081;DHT22;13991;51.174;4.438;2024-01-27T10:30:34;8.20;99.90
26081;DHT22;13991;51.174;4.438;2024-01-27T10:33:00;8.20;99.90
26081;DHT22;13991;51.174;4.438;2024-01-27T10:35:26;8.30;99.90
26081;DHT22;13991;51.174;4.438;2024-01-27T10:37:52;8.20;99.90
26081;DHT22;13991;51.174;4.438;2024-01-27T10:40:19;8.10;99.90
26081;DHT22;13991;51.174;4.438;2024-01-27T10:42:44;8.00;99.90
26081;DHT22;13991;51.174;4.438;2024-01-27T10:45:11;8.00;99.90
26081;DHT22;13991;51.174;4.438;2024-01-27T10:47:38;8.10;99.90
26081;DHT22;13991;51.174;4.438;2024-01-27T10:50:08;8.30;99.90
26081;DHT22;13991;51.174;4.438;2024-01-27T10:52:38;8.40;99.90
26081;DHT22;13991;51.174;4.438;2024-01-27T10:55:05;8.50;99.90
26081;DHT22;13991;51.174;4.438;2024-01-27T10:57:34;8.60;99.90
26081;DHT22;13991;51.174;4.438;2024-01-27T11:00:06;8.70;99.90
26081;DHT22;13991;51.174;4.438;2024-01-27T11:02:33;8.90;99.90
26081;DHT22;13991;51.174;4.438;2024-01-27T11:05:03;9.00;99.90
26081;DHT22;13991;51.174;4.438;2024-01-27T11:07:33;9.00;99.90
26081;DHT22;13991;51.174;4.438;2024-01-27T11:09:59;9.00;99.90
26081;DHT22;13991;51.174;4.438;2024-01-27T11:12:26;9.10;99.90
26081;DHT22;13991;51.174;4.438;2024-01-27T11:14:52;9.20;99.90
26081;DHT22;13991;51.174;4.438;2024-01-27T11:17:19;9.20;99.90
26081;DHT22;13991;51.174;4.438;2024-01-27T11:19:45;9.30;99.90
26081;DHT22;13991;51.174;4.438;2024-01-27T11:22:37;9.30;99.90
26081;DHT22;13991;51.174;4.438;2024-01-27T11:27:42;9.40;99.90
26081;DHT22;13991;51.174;4.438;2024-01-27T11:30:30;9.60;99.90
26081;DHT22;13991;51.174;4.438;2024-01-27T11:32:56;9.60;99.90
26081;DHT22;13991;51.174;4.438;2024-01-27T11:35:25;9.70;99.90
26081;DHT22;13991;51.174;4.438;2024-01-27T11:37:52;9.90;99.90
26081;DHT22;13991;51.174;4.438;2024-01-27T11:40:17;10.00;99.90
26081;DHT22;13991;51.174;4.438;2024-01-27T11:42:43;10.10;99.90
26081;DHT22;13991;51.174;4.438;2024-01-27T11:45:09;10.20;99.90
26081;DHT22;13991;51.174;4.438;2024-01-27T11:47:38;10.30;99.90
26081;DHT22;13991;51.174;4.438;2024-01-27T11:50:04;10.40;99.90
26081;DHT22;13991;51.174;4.438;2024-01-27T11:52:29;10.50;99.90
26081;DHT22;13991;51.174;4.438;2024-01-27T11:54:55;10.60;99.90
26081;DHT22;13991;51.174;4.438;2024-01-27T11:57:21;10.70;99.90
26081;DHT22;13991;51.174;4.438;2024-01-27T11:59:47;10.80;99.90
26081;DHT22;13991;51.174;4.438;2024-01-27T12:02:13;10.90;99.90
26081;DHT22;13991;51.174;4.438;2024-01-27T12:04:39;10.80;99.90
26081;DHT22;13991;51.174;4.438;2024-01-27T12:07:05;10.80;99.90
26081;DHT22;13991;51.174;4.438;2024-01-27T12:09:32;10.90;99.90
26081;DHT22;13991;51.174;4.438;2024-01-27T12:11:57;10.90;99.90
26081;DHT22;13991;51.174;4.438;2024-01-27T12:14:23;11.00;99.90
26081;DHT22;13991;51.174;4.438;2024-01-27T12:16:49;10.90;99.90
26081;DHT22;13991;51.174;4.438;2024-01-27T12:19:14;10.90;99.90
26081;DHT22;13991;51.174;4.438;2024-01-27T12:21:48;10.80;99.90
26081;DHT22;13991;51.174;4.438;2024-01-27T12:24:16;10.70;99.90
26081;DHT22;13991;51.174;4.438;2024-01-27T12:26:45;10.70;99.90
26081;DHT22;13991;51.174;4.438;2024-01-27T12:29:11;10.70;99.90
26081;DHT22;13991;51.174;4.438;2024-01-27T12:31:37;10.60;99.90
26081;DHT22;13991;51.174;4.438;2024-01-27T12:34:03;10.70;99.90
26081;DHT22;13991;51.174;4.438;2024-01-27T12:36:29;10.70;99.90
26081;DHT22;13991;51.174;4.438;2024-01-27T12:39:00;10.80;99.90
26081;DHT22;13991;51.174;4.438;2024-01-27T12:41:28;10.90;99.90
26081;DHT22;13991;51.174;4.438;2024-01-27T12:43:55;10.70;99.90
26081;DHT22;13991;51.174;4.438;2024-01-27T12:46:21;10.70;99.90
26081;DHT22;13991;51.174;4.438;2024-01-27T12:48:46;10.60;99.90
26081;DHT22;13991;51.174;4.438;2024-01-27T12:51:12;10.50;99.90
26081;DHT22;13991;51.174;4.438;2024-01-27T12:53:39;10.50;99.90
26081;DHT22;13991;51.174;4.438;2024-01-27T12:56:08;10.40;99.90
26081;DHT22;13991;51.174;4.438;2024-01-27T12:58:34;10.50;99.90
26081;DHT22;13991;51.174;4.438;2024-01-27T13:01:00;10.50;99.90
26081;DHT22;13991;51.174;4.438;2024-01-27T13:03:26;10.40;99.90
26081;DHT22;13991;51.174;4.438;2024-01-27T13:05:53;10.50;99.90
26081;DHT22;13991;51.174;4.438;2024-01-27T13:08:19;10.50;99.90
26081;DHT22;13991;51.174;4.438;2024-01-27T13:10:44;10.40;99.90
26081;DHT22;13991;51.174;4.438;2024-01-27T13:13:10;10.40;99.90
26081;DHT22;13991;51.174;4.438;2024-01-27T13:15:36;10.40;99.90
26081;DHT22;13991;51.174;4.438;2024-01-27T13:18:01;10.50;99.90
26081;DHT22;13991;51.174;4.438;2024-01-27T13:20:27;10.40;99.90
26081;DHT22;13991;51.174;4.438;2024-01-27T13:22:52;10.40;99.90
26081;DHT22;13991;51.174;4.438;2024-01-27T13:25:19;10.40;99.90
26081;DHT22;13991;51.174;4.438;2024-01-27T13:27:45;10.40;99.90
26081;DHT22;13991;51.174;4.438;2024-01-27T13:30:11;10.40;99.90
26081;DHT22;13991;51.174;4.438;2024-01-27T13:32:38;10.40;99.90
26081;DHT22;13991;51.174;4.438;2024-01-27T13:35:04;10.40;99.90
26081;DHT22;13991;51.174;4.438;2024-01-27T13:37:29;10.50;99.90
26081;DHT22;13991;51.174;4.438;2024-01-27T13:39:59;10.50;99.90
26081;DHT22;13991;51.174;4.438;2024-01-27T13:42:25;10.70;99.90
26081;DHT22;13991;51.174;4.438;2024-01-27T13:44:51;10.80;99.90
26081;DHT22;13991;51.174;4.438;2024-01-27T13:47:17;10.80;99.90
26081;DHT22;13991;51.174;4.438;2024-01-27T13:49:43;10.80;99.90
26081;DHT22;13991;51.174;4.438;2024-01-27T13:52:09;10.90;99.90
26081;DHT22;13991;51.174;4.438;2024-01-27T13:54:36;10.90;99.90
26081;DHT22;13991;51.174;4.438;2024-01-27T13:57:02;10.90;99.90
26081;DHT22;13991;51.174;4.438;2024-01-27T13:59:28;11.00;99.90
26081;DHT22;13991;51.174;4.438;2024-01-27T14:01:54;11.00;99.90
26081;DHT22;13991;51.174;4.438;2024-01-27T14:04:20;11.20;99.90
26081;DHT22;13991;51.174;4.438;2024-01-27T14:06:46;11.10;99.90
26081;DHT22;13991;51.174;4.438;2024-01-27T14:09:12;11.10;99.90
26081;DHT22;13991;51.174;4.438;2024-01-27T14:11:39;11.00;99.90
26081;DHT22;13991;51.174;4.438;2024-01-27T14:14:04;10.90;99.90
26081;DHT22;13991;51.174;4.438;2024-01-27T14:16:30;10.80;99.90
26081;DHT22;13991;51.174;4.438;2024-01-27T14:18:57;10.70;99.90
26081;DHT22;13991;51.174;4.438;2024-01-27T14:21:23;10.80;99.90
26081;DHT22;13991;51.174;4.438;2024-01-27T14:23:49;10.70;99.90
26081;DHT22;13991;51.174;4.438;2024-01-27T14:26:15;10.90;99.90
26081;DHT22;13991;51.174;4.438;2024-01-27T14:28:42;10.90;99.90
26081;DHT22;13991;51.174;4.438;2024-01-27T14:31:08;10.90;99.90
26081;DHT22;13991;51.174;4.438;2024-01-27T14:33:33;10.90;99.90
26081;DHT22;13991;51.174;4.438;2024-01-27T14:35:59;11.10;99.90
26081;DHT22;13991;51.174;4.438;2024-01-27T14:38:25;11.20;99.90
26081;DHT22;13991;51.174;4.438;2024-01-27T14:40:51;11.10;99.90
26081;DHT22;13991;51.174;4.438;2024-01-27T14:43:16;11.10;99.90
26081;DHT22;13991;51.174;4.438;2024-01-27T14:45:46;11.10;99.90
26081;DHT22;13991;51.174;4.438;2024-01-27T14:48:13;10.90;99.90
26081;DHT22;13991;51.174;4.438;2024-01-27T14:50:39;10.80;99.90
26081;DHT22;13991;51.174;4.438;2024-01-27T14:53:04;10.80;99.90
26081;DHT22;13991;51.174;4.438;2024-01-27T14:55:31;11.00;99.90
26081;DHT22;13991;51.174;4.438;2024-01-27T14:57:58;10.90;99.90
26081;DHT22;13991;51.174;4.438;2024-01-27T15:00:24;10.70;99.90
26081;DHT22;13991;51.174;4.438;2024-01-27T15:02:51;10.80;99.90
26081;DHT22;13991;51.174;4.438;2024-01-27T15:05:17;10.70;99.90
26081;DHT22;13991;51.174;4.438;2024-01-27T15:07:44;10.80;99.90
26081;DHT22;13991;51.174;4.438;2024-01-27T15:10:11;10.80;99.90
26081;DHT22;13991;51.174;4.438;2024-01-27T15:12:37;10.80;99.90
26081;DHT22;13991;51.174;4.438;2024-01-27T15:15:04;10.60;99.90
26081;DHT22;13991;51.174;4.438;2024-01-27T15:17:30;10.50;99.90
26081;DHT22;13991;51.174;4.438;2024-01-27T15:19:56;10.50;99.90
26081;DHT22;13991;51.174;4.438;2024-01-27T15:22:21;10.40;99.90
26081;DHT22;13991;51.174;4.438;2024-01-27T15:24:47;10.30;99.90
26081;DHT22;13991;51.174;4.438;2024-01-27T15:27:13;10.00;99.90
26081;DHT22;13991;51.174;4.438;2024-01-27T15:29:38;10.00;99.90
26081;DHT22;13991;51.174;4.438;2024-01-27T15:32:04;10.10;99.90
26081;DHT22;13991;51.174;4.438;2024-01-27T15:34:30;10.00;99.90
26081;DHT22;13991;51.174;4.438;2024-01-27T15:36:56;10.00;99.90
26081;DHT22;13991;51.174;4.438;2024-01-27T15:39:23;9.90;99.90